sensor_id;sensor_type;location;lat;lon;timestamp;P1;durP1;ratioP1;P2;durP2;ratioP2
30888;SDS011;51092;50.874;7.024;2023-07-29T00:00:24;2.80;;;1.40;;
30888;SDS011;51092;50.874;7.024;2023-07-29T00:01:28;3.40;;;1.52;;
30888;SDS011;51092;50.874;7.024;2023-07-29T00:02:31;5.85;;;1.67;;
30888;SDS011;51092;50.874;7.024;2023-07-29T00:03:34;2.28;;;1.38;;
30888;SDS011;51092;50.874;7.024;2023-07-29T00:04:35;1.58;;;1.48;;
30888;SDS011;51092;50.874;7.024;2023-07-29T00:05:38;2.05;;;1.50;;
30888;SDS011;51092;50.874;7.024;2023-07-29T00:06:39;2.38;;;1.48;;
30888;SDS011;51092;50.874;7.024;2023-07-29T00:07:42;2.22;;;1.77;;
30888;SDS011;51092;50.874;7.024;2023-07-29T00:08:43;3.75;;;1.73;;
30888;SDS011;51092;50.874;7.024;2023-07-29T00:09:46;2.00;;;1.50;;
30888;SDS011;51092;50.874;7.024;2023-07-29T00:10:47;6.93;;;2.05;;
30888;SDS011;51092;50.874;7.024;2023-07-29T00:11:50;1.38;;;1.27;;
30888;SDS011;51092;50.874;7.024;2023-07-29T00:12:51;2.45;;;1.70;;
30888;SDS011;51092;50.874;7.024;2023-07-29T00:13:54;3.13;;;1.50;;
30888;SDS011;51092;50.874;7.024;2023-07-29T00:14:56;2.03;;;1.50;;
30888;SDS011;51092;50.874;7.024;2023-07-29T00:15:58;3.95;;;1.88;;
30888;SDS011;51092;50.874;7.024;2023-07-29T00:17:00;1.45;;;1.35;;
30888;SDS011;51092;50.874;7.024;2023-07-29T00:18:04;2.00;;;1.42;;
30888;SDS011;51092;50.874;7.024;2023-07-29T00:19:05;5.45;;;1.40;;
30888;SDS011;51092;50.874;7.024;2023-07-29T00:20:08;3.70;;;1.52;;
30888;SDS011;51092;50.874;7.024;2023-07-29T00:21:09;2.08;;;1.50;;
30888;SDS011;51092;50.874;7.024;2023-07-29T00:22:11;3.17;;;1.60;;
30888;SDS011;51092;50.874;7.024;2023-07-29T00:23:14;1.73;;;1.40;;
30888;SDS011;51092;50.874;7.024;2023-07-29T00:24:15;6.28;;;1.63;;
30888;SDS011;51092;50.874;7.024;2023-07-29T00:25:17;4.78;;;1.85;;
30888;SDS011;51092;50.874;7.024;2023-07-29T00:26:19;4.40;;;1.70;;
30888;SDS011;51092;50.874;7.024;2023-07-29T00:27:22;4.70;;;2.05;;
30888;SDS011;51092;50.874;7.024;2023-07-29T00:28:24;9.48;;;2.97;;
30888;SDS011;51092;50.874;7.024;2023-07-29T00:29:26;4.72;;;2.08;;
30888;SDS011;51092;50.874;7.024;2023-07-29T00:30:27;5.90;;;2.40;;
30888;SDS011;51092;50.874;7.024;2023-07-29T00:31:30;2.47;;;2.08;;
30888;SDS011;51092;50.874;7.024;2023-07-29T00:32:31;3.47;;;2.45;;
30888;SDS011;51092;50.874;7.024;2023-07-29T00:33:35;6.72;;;2.42;;
30888;SDS011;51092;50.874;7.024;2023-07-29T00:34:37;4.95;;;3.08;;
30888;SDS011;51092;50.874;7.024;2023-07-29T00:35:38;2.33;;;2.13;;
30888;SDS011;51092;50.874;7.024;2023-07-29T00:36:41;3.35;;;2.15;;
30888;SDS011;51092;50.874;7.024;2023-07-29T00:37:42;3.28;;;2.35;;
30888;SDS011;51092;50.874;7.024;2023-07-29T00:38:45;4.20;;;2.63;;
30888;SDS011;51092;50.874;7.024;2023-07-29T00:39:46;5.13;;;2.33;;
30888;SDS011;51092;50.874;7.024;2023-07-29T00:40:48;3.35;;;2.35;;
30888;SDS011;51092;50.874;7.024;2023-07-29T00:41:50;2.80;;;2.50;;
30888;SDS011;51092;50.874;7.024;2023-07-29T00:42:52;2.55;;;2.35;;
30888;SDS011;51092;50.874;7.024;2023-07-29T00:43:54;2.80;;;2.40;;
30888;SDS011;51092;50.874;7.024;2023-07-29T00:44:56;2.58;;;2.38;;
30888;SDS011;51092;50.874;7.024;2023-07-29T00:45:58;2.42;;;2.13;;
30888;SDS011;51092;50.874;7.024;2023-07-29T00:47:01;3.95;;;2.35;;
30888;SDS011;51092;50.874;7.024;2023-07-29T00:48:05;3.90;;;2.30;;
30888;SDS011;51092;50.874;7.024;2023-07-29T00:49:08;5.82;;;2.50;;
30888;SDS011;51092;50.874;7.024;2023-07-29T00:50:11;4.00;;;2.50;;
30888;SDS011;51092;50.874;7.024;2023-07-29T00:51:13;2.55;;;2.35;;
30888;SDS011;51092;50.874;7.024;2023-07-29T00:52:16;4.35;;;2.78;;
30888;SDS011;51092;50.874;7.024;2023-07-29T00:53:17;6.97;;;2.65;;
30888;SDS011;51092;50.874;7.024;2023-07-29T00:54:19;4.50;;;2.42;;
30888;SDS011;51092;50.874;7.024;2023-07-29T00:55:20;6.40;;;2.88;;
30888;SDS011;51092;50.874;7.024;2023-07-29T00:56:22;4.25;;;2.60;;
30888;SDS011;51092;50.874;7.024;2023-07-29T00:57:23;4.72;;;2.47;;
30888;SDS011;51092;50.874;7.024;2023-07-29T00:58:26;4.90;;;2.50;;
30888;SDS011;51092;50.874;7.024;2023-07-29T00:59:29;5.75;;;2.63;;
30888;SDS011;51092;50.874;7.024;2023-07-29T01:00:32;4.32;;;2.40;;
30888;SDS011;51092;50.874;7.024;2023-07-29T01:01:35;3.75;;;3.10;;
30888;SDS011;51092;50.874;7.024;2023-07-29T01:02:36;3.63;;;3.33;;
30888;SDS011;51092;50.874;7.024;2023-07-29T01:03:39;5.35;;;3.47;;
30888;SDS011;51092;50.874;7.024;2023-07-29T01:04:42;3.08;;;2.78;;
30888;SDS011;51092;50.874;7.024;2023-07-29T01:05:47;4.53;;;2.83;;
30888;SDS011;51092;50.874;7.024;2023-07-29T01:07:06;4.20;;;2.78;;
30888;SDS011;51092;50.874;7.024;2023-07-29T01:08:16;5.10;;;2.55;;
30888;SDS011;51092;50.874;7.024;2023-07-29T01:09:29;4.15;;;3.05;;
30888;SDS011;51092;50.874;7.024;2023-07-29T01:10:46;3.38;;;2.55;;
30888;SDS011;51092;50.874;7.024;2023-07-29T01:11:58;6.43;;;4.22;;
30888;SDS011;51092;50.874;7.024;2023-07-29T01:13:10;5.22;;;4.13;;
30888;SDS011;51092;50.874;7.024;2023-07-29T01:14:19;4.82;;;2.28;;
30888;SDS011;51092;50.874;7.024;2023-07-29T01:15:31;3.60;;;2.80;;
30888;SDS011;51092;50.874;7.024;2023-07-29T01:16:38;9.50;;;2.63;;
30888;SDS011;51092;50.874;7.024;2023-07-29T01:17:46;2.92;;;2.70;;
30888;SDS011;51092;50.874;7.024;2023-07-29T01:18:50;5.03;;;2.58;;
30888;SDS011;51092;50.874;7.024;2023-07-29T01:19:59;6.03;;;3.67;;
30888;SDS011;51092;50.874;7.024;2023-07-29T01:21:04;3.65;;;2.88;;
30888;SDS011;51092;50.874;7.024;2023-07-29T01:22:09;3.40;;;3.08;;
30888;SDS011;51092;50.874;7.024;2023-07-29T01:23:11;4.25;;;3.60;;
30888;SDS011;51092;50.874;7.024;2023-07-29T01:24:15;5.78;;;3.83;;
30888;SDS011;51092;50.874;7.024;2023-07-29T01:25:17;5.18;;;3.05;;
30888;SDS011;51092;50.874;7.024;2023-07-29T01:26:19;4.70;;;2.70;;
30888;SDS011;51092;50.874;7.024;2023-07-29T01:27:20;3.15;;;2.90;;
30888;SDS011;51092;50.874;7.024;2023-07-29T01:28:23;5.50;;;4.95;;
30888;SDS011;51092;50.874;7.024;2023-07-29T01:29:25;10.40;;;4.18;;
30888;SDS011;51092;50.874;7.024;2023-07-29T01:30:29;3.78;;;3.40;;
30888;SDS011;51092;50.874;7.024;2023-07-29T01:31:34;4.20;;;3.88;;
30888;SDS011;51092;50.874;7.024;2023-07-29T01:32:47;6.25;;;3.22;;
30888;SDS011;51092;50.874;7.024;2023-07-29T01:33:56;4.40;;;3.33;;
30888;SDS011;51092;50.874;7.024;2023-07-29T01:35:03;6.40;;;3.80;;
30888;SDS011;51092;50.874;7.024;2023-07-29T01:36:11;7.53;;;6.22;;
30888;SDS011;51092;50.874;7.024;2023-07-29T01:37:18;3.63;;;3.30;;
30888;SDS011;51092;50.874;7.024;2023-07-29T01:38:24;5.53;;;3.40;;
30888;SDS011;51092;50.874;7.024;2023-07-29T01:39:33;4.30;;;3.90;;
30888;SDS011;51092;50.874;7.024;2023-07-29T01:40:37;5.63;;;4.20;;
30888;SDS011;51092;50.874;7.024;2023-07-29T01:41:41;3.90;;;3.60;;
30888;SDS011;51092;50.874;7.024;2023-07-29T01:42:44;11.40;;;6.07;;
30888;SDS011;51092;50.874;7.024;2023-07-29T01:43:46;6.15;;;3.40;;
30888;SDS011;51092;50.874;7.024;2023-07-29T01:44:48;6.05;;;3.58;;
30888;SDS011;51092;50.874;7.024;2023-07-29T01:45:49;6.22;;;3.33;;
30888;SDS011;51092;50.874;7.024;2023-07-29T01:46:51;4.07;;;3.40;;
30888;SDS011;51092;50.874;7.024;2023-07-29T01:47:53;7.80;;;3.65;;
30888;SDS011;51092;50.874;7.024;2023-07-29T01:48:55;3.35;;;3.05;;
30888;SDS011;51092;50.874;7.024;2023-07-29T01:49:57;8.25;;;4.55;;
30888;SDS011;51092;50.874;7.024;2023-07-29T01:50:58;5.88;;;5.32;;
30888;SDS011;51092;50.874;7.024;2023-07-29T01:52:01;7.05;;;3.67;;
30888;SDS011;51092;50.874;7.024;2023-07-29T01:53:03;4.78;;;3.47;;
30888;SDS011;51092;50.874;7.024;2023-07-29T01:54:05;6.60;;;4.32;;
30888;SDS011;51092;50.874;7.024;2023-07-29T01:55:08;5.63;;;4.07;;
30888;SDS011;51092;50.874;7.024;2023-07-29T01:56:11;6.68;;;3.90;;
30888;SDS011;51092;50.874;7.024;2023-07-29T01:57:12;5.97;;;3.60;;
30888;SDS011;51092;50.874;7.024;2023-07-29T01:58:14;4.00;;;3.60;;
30888;SDS011;51092;50.874;7.024;2023-07-29T01:59:16;5.82;;;4.18;;
30888;SDS011;51092;50.874;7.024;2023-07-29T02:00:18;5.47;;;3.80;;
30888;SDS011;51092;50.874;7.024;2023-07-29T02:01:21;4.93;;;3.53;;
30888;SDS011;51092;50.874;7.024;2023-07-29T02:02:22;8.95;;;4.20;;
30888;SDS011;51092;50.874;7.024;2023-07-29T02:03:24;6.05;;;4.03;;
30888;SDS011;51092;50.874;7.024;2023-07-29T02:04:26;8.35;;;5.70;;
30888;SDS011;51092;50.874;7.024;2023-07-29T02:05:28;4.90;;;3.65;;
30888;SDS011;51092;50.874;7.024;2023-07-29T02:06:30;10.90;;;6.63;;
30888;SDS011;51092;50.874;7.024;2023-07-29T02:07:33;10.77;;;5.15;;
30888;SDS011;51092;50.874;7.024;2023-07-29T02:08:34;11.90;;;7.88;;
30888;SDS011;51092;50.874;7.024;2023-07-29T02:09:37;15.35;;;5.78;;
30888;SDS011;51092;50.874;7.024;2023-07-29T02:10:39;16.45;;;7.47;;
30888;SDS011;51092;50.874;7.024;2023-07-29T02:11:45;33.40;;;9.38;;
30888;SDS011;51092;50.874;7.024;2023-07-29T02:12:47;15.70;;;8.77;;
30888;SDS011;51092;50.874;7.024;2023-07-29T02:13:49;12.52;;;8.95;;
30888;SDS011;51092;50.874;7.024;2023-07-29T02:14:50;11.60;;;8.98;;
30888;SDS011;51092;50.874;7.024;2023-07-29T02:15:53;9.75;;;6.15;;
30888;SDS011;51092;50.874;7.024;2023-07-29T02:16:54;8.05;;;6.47;;
30888;SDS011;51092;50.874;7.024;2023-07-29T02:17:57;6.38;;;4.20;;
30888;SDS011;51092;50.874;7.024;2023-07-29T02:19:00;7.57;;;5.90;;
30888;SDS011;51092;50.874;7.024;2023-07-29T02:20:02;5.25;;;4.75;;
30888;SDS011;51092;50.874;7.024;2023-07-29T02:21:04;8.98;;;4.97;;
30888;SDS011;51092;50.874;7.024;2023-07-29T02:22:07;5.22;;;4.30;;
30888;SDS011;51092;50.874;7.024;2023-07-29T02:23:08;9.10;;;5.05;;
30888;SDS011;51092;50.874;7.024;2023-07-29T02:24:10;8.48;;;5.03;;
30888;SDS011;51092;50.874;7.024;2023-07-29T02:25:12;5.65;;;5.15;;
30888;SDS011;51092;50.874;7.024;2023-07-29T02:26:16;7.80;;;4.75;;
30888;SDS011;51092;50.874;7.024;2023-07-29T02:27:18;8.18;;;6.07;;
30888;SDS011;51092;50.874;7.024;2023-07-29T02:28:20;5.22;;;4.70;;
30888;SDS011;51092;50.874;7.024;2023-07-29T02:29:22;6.57;;;5.43;;
30888;SDS011;51092;50.874;7.024;2023-07-29T02:30:26;4.95;;;4.43;;
30888;SDS011;51092;50.874;7.024;2023-07-29T02:31:27;10.75;;;9.55;;
30888;SDS011;51092;50.874;7.024;2023-07-29T02:32:30;16.15;;;12.25;;
30888;SDS011;51092;50.874;7.024;2023-07-29T02:33:31;17.33;;;11.52;;
30888;SDS011;51092;50.874;7.024;2023-07-29T02:34:32;24.85;;;14.02;;
30888;SDS011;51092;50.874;7.024;2023-07-29T02:35:35;17.23;;;12.75;;
30888;SDS011;51092;50.874;7.024;2023-07-29T02:36:36;15.25;;;12.90;;
30888;SDS011;51092;50.874;7.024;2023-07-29T02:37:39;17.15;;;13.77;;
30888;SDS011;51092;50.874;7.024;2023-07-29T02:38:41;18.95;;;13.35;;
30888;SDS011;51092;50.874;7.024;2023-07-29T02:39:44;18.98;;;14.23;;
30888;SDS011;51092;50.874;7.024;2023-07-29T02:40:46;12.23;;;10.82;;
30888;SDS011;51092;50.874;7.024;2023-07-29T02:41:50;10.50;;;8.43;;
30888;SDS011;51092;50.874;7.024;2023-07-29T02:42:51;6.20;;;5.40;;
30888;SDS011;51092;50.874;7.024;2023-07-29T02:43:54;6.35;;;5.00;;
30888;SDS011;51092;50.874;7.024;2023-07-29T02:44:56;9.55;;;6.03;;
30888;SDS011;51092;50.874;7.024;2023-07-29T02:45:59;6.97;;;5.72;;
30888;SDS011;51092;50.874;7.024;2023-07-29T02:47:00;6.40;;;5.53;;
30888;SDS011;51092;50.874;7.024;2023-07-29T02:48:02;8.90;;;6.00;;
30888;SDS011;51092;50.874;7.024;2023-07-29T02:49:03;9.23;;;6.10;;
30888;SDS011;51092;50.874;7.024;2023-07-29T02:50:05;9.88;;;7.70;;
30888;SDS011;51092;50.874;7.024;2023-07-29T02:51:07;11.80;;;8.88;;
30888;SDS011;51092;50.874;7.024;2023-07-29T02:52:09;7.03;;;6.28;;
30888;SDS011;51092;50.874;7.024;2023-07-29T02:53:11;9.07;;;6.78;;
30888;SDS011;51092;50.874;7.024;2023-07-29T02:54:13;9.40;;;7.53;;
30888;SDS011;51092;50.874;7.024;2023-07-29T02:55:15;9.57;;;8.57;;
30888;SDS011;51092;50.874;7.024;2023-07-29T02:56:17;11.38;;;7.78;;
30888;SDS011;51092;50.874;7.024;2023-07-29T02:57:20;7.30;;;6.55;;
30888;SDS011;51092;50.874;7.024;2023-07-29T02:58:23;7.70;;;5.97;;
30888;SDS011;51092;50.874;7.024;2023-07-29T02:59:24;8.35;;;7.38;;
30888;SDS011;51092;50.874;7.024;2023-07-29T03:00:27;9.35;;;5.85;;
30888;SDS011;51092;50.874;7.024;2023-07-29T03:01:32;8.68;;;7.43;;
30888;SDS011;51092;50.874;7.024;2023-07-29T03:02:34;7.85;;;6.90;;
30888;SDS011;51092;50.874;7.024;2023-07-29T03:03:36;8.60;;;6.75;;
30888;SDS011;51092;50.874;7.024;2023-07-29T03:04:38;23.50;;;15.77;;
30888;SDS011;51092;50.874;7.024;2023-07-29T03:05:40;16.73;;;11.80;;
30888;SDS011;51092;50.874;7.024;2023-07-29T03:06:42;11.95;;;8.10;;
30888;SDS011;51092;50.874;7.024;2023-07-29T03:07:43;6.95;;;5.35;;
30888;SDS011;51092;50.874;7.024;2023-07-29T03:08:46;4.90;;;4.28;;
30888;SDS011;51092;50.874;7.024;2023-07-29T03:09:48;4.88;;;4.30;;
30888;SDS011;51092;50.874;7.024;2023-07-29T03:10:50;7.88;;;6.47;;
30888;SDS011;51092;50.874;7.024;2023-07-29T03:11:52;8.07;;;5.78;;
30888;SDS011;51092;50.874;7.024;2023-07-29T03:12:56;18.23;;;13.60;;
30888;SDS011;51092;50.874;7.024;2023-07-29T03:13:58;8.15;;;6.00;;
30888;SDS011;51092;50.874;7.024;2023-07-29T03:15:01;6.00;;;5.40;;
30888;SDS011;51092;50.874;7.024;2023-07-29T03:16:06;16.48;;;14.55;;
30888;SDS011;51092;50.874;7.024;2023-07-29T03:17:08;16.15;;;14.13;;
30888;SDS011;51092;50.874;7.024;2023-07-29T03:18:11;17.25;;;14.30;;
30888;SDS011;51092;50.874;7.024;2023-07-29T03:19:12;8.32;;;6.22;;
30888;SDS011;51092;50.874;7.024;2023-07-29T03:20:15;9.32;;;6.25;;
30888;SDS011;51092;50.874;7.024;2023-07-29T03:21:18;6.65;;;6.03;;
30888;SDS011;51092;50.874;7.024;2023-07-29T03:22:20;5.68;;;5.10;;
30888;SDS011;51092;50.874;7.024;2023-07-29T03:23:22;14.63;;;12.98;;
30888;SDS011;51092;50.874;7.024;2023-07-29T03:24:24;6.70;;;5.53;;
30888;SDS011;51092;50.874;7.024;2023-07-29T03:25:26;14.27;;;11.48;;
30888;SDS011;51092;50.874;7.024;2023-07-29T03:26:28;19.77;;;16.13;;
30888;SDS011;51092;50.874;7.024;2023-07-29T03:27:30;7.10;;;6.35;;
30888;SDS011;51092;50.874;7.024;2023-07-29T03:28:33;6.80;;;4.95;;
30888;SDS011;51092;50.874;7.024;2023-07-29T03:29:36;9.77;;;8.32;;
30888;SDS011;51092;50.874;7.024;2023-07-29T03:30:37;5.65;;;3.78;;
30888;SDS011;51092;50.874;7.024;2023-07-29T03:31:39;4.15;;;3.80;;
30888;SDS011;51092;50.874;7.024;2023-07-29T03:32:43;5.53;;;4.47;;
30888;SDS011;51092;50.874;7.024;2023-07-29T03:33:46;6.20;;;3.75;;
30888;SDS011;51092;50.874;7.024;2023-07-29T03:34:48;4.32;;;3.33;;
30888;SDS011;51092;50.874;7.024;2023-07-29T03:35:51;8.05;;;3.28;;
30888;SDS011;51092;50.874;7.024;2023-07-29T03:36:52;8.73;;;5.32;;
30888;SDS011;51092;50.874;7.024;2023-07-29T03:37:55;7.15;;;4.22;;
30888;SDS011;51092;50.874;7.024;2023-07-29T03:38:57;3.72;;;3.13;;
30888;SDS011;51092;50.874;7.024;2023-07-29T03:39:59;4.38;;;4.03;;
30888;SDS011;51092;50.874;7.024;2023-07-29T03:41:02;3.97;;;3.25;;
30888;SDS011;51092;50.874;7.024;2023-07-29T03:42:03;3.10;;;2.67;;
30888;SDS011;51092;50.874;7.024;2023-07-29T03:43:07;5.65;;;3.47;;
30888;SDS011;51092;50.874;7.024;2023-07-29T03:44:10;4.70;;;3.00;;
30888;SDS011;51092;50.874;7.024;2023-07-29T03:45:12;4.32;;;3.05;;
30888;SDS011;51092;50.874;7.024;2023-07-29T03:46:14;4.80;;;3.70;;
30888;SDS011;51092;50.874;7.024;2023-07-29T03:47:20;6.05;;;5.18;;
30888;SDS011;51092;50.874;7.024;2023-07-29T03:48:21;5.25;;;3.20;;
30888;SDS011;51092;50.874;7.024;2023-07-29T03:49:23;8.27;;;4.28;;
30888;SDS011;51092;50.874;7.024;2023-07-29T03:50:25;6.32;;;3.90;;
30888;SDS011;51092;50.874;7.024;2023-07-29T03:51:27;3.75;;;2.70;;
30888;SDS011;51092;50.874;7.024;2023-07-29T03:52:30;4.78;;;3.03;;
30888;SDS011;51092;50.874;7.024;2023-07-29T03:53:31;3.08;;;2.78;;
30888;SDS011;51092;50.874;7.024;2023-07-29T03:54:33;4.75;;;2.80;;
30888;SDS011;51092;50.874;7.024;2023-07-29T03:55:35;3.75;;;3.00;;
30888;SDS011;51092;50.874;7.024;2023-07-29T03:56:37;3.60;;;3.30;;
30888;SDS011;51092;50.874;7.024;2023-07-29T03:57:39;4.97;;;4.18;;
30888;SDS011;51092;50.874;7.024;2023-07-29T03:58:42;6.20;;;3.45;;
30888;SDS011;51092;50.874;7.024;2023-07-29T03:59:45;4.28;;;3.70;;
30888;SDS011;51092;50.874;7.024;2023-07-29T04:00:48;8.02;;;4.53;;
30888;SDS011;51092;50.874;7.024;2023-07-29T04:01:49;7.47;;;6.75;;
30888;SDS011;51092;50.874;7.024;2023-07-29T04:02:52;6.93;;;4.75;;
30888;SDS011;51092;50.874;7.024;2023-07-29T04:03:53;5.95;;;5.40;;
30888;SDS011;51092;50.874;7.024;2023-07-29T04:04:56;4.18;;;3.88;;
30888;SDS011;51092;50.874;7.024;2023-07-29T04:05:57;5.85;;;4.90;;
30888;SDS011;51092;50.874;7.024;2023-07-29T04:07:00;4.93;;;4.53;;
30888;SDS011;51092;50.874;7.024;2023-07-29T04:08:02;5.15;;;4.65;;
30888;SDS011;51092;50.874;7.024;2023-07-29T04:09:04;5.10;;;4.60;;
30888;SDS011;51092;50.874;7.024;2023-07-29T04:10:06;6.38;;;5.68;;
30888;SDS011;51092;50.874;7.024;2023-07-29T04:11:09;6.22;;;5.05;;
30888;SDS011;51092;50.874;7.024;2023-07-29T04:12:11;6.85;;;6.15;;
30888;SDS011;51092;50.874;7.024;2023-07-29T04:13:13;6.35;;;5.85;;
30888;SDS011;51092;50.874;7.024;2023-07-29T04:14:15;4.85;;;4.35;;
30888;SDS011;51092;50.874;7.024;2023-07-29T04:15:18;6.07;;;4.97;;
30888;SDS011;51092;50.874;7.024;2023-07-29T04:16:20;7.63;;;5.80;;
30888;SDS011;51092;50.874;7.024;2023-07-29T04:17:22;6.75;;;6.18;;
30888;SDS011;51092;50.874;7.024;2023-07-29T04:18:24;5.80;;;4.40;;
30888;SDS011;51092;50.874;7.024;2023-07-29T04:19:26;6.28;;;5.75;;
30888;SDS011;51092;50.874;7.024;2023-07-29T04:20:29;4.45;;;4.05;;
30888;SDS011;51092;50.874;7.024;2023-07-29T04:21:30;5.60;;;5.05;;
30888;SDS011;51092;50.874;7.024;2023-07-29T04:22:32;7.45;;;6.75;;
30888;SDS011;51092;50.874;7.024;2023-07-29T04:23:34;4.75;;;4.35;;
30888;SDS011;51092;50.874;7.024;2023-07-29T04:24:37;5.55;;;5.05;;
30888;SDS011;51092;50.874;7.024;2023-07-29T04:25:38;5.10;;;4.70;;
30888;SDS011;51092;50.874;7.024;2023-07-29T04:26:41;5.75;;;4.43;;
30888;SDS011;51092;50.874;7.024;2023-07-29T04:27:42;7.20;;;5.63;;
30888;SDS011;51092;50.874;7.024;2023-07-29T04:28:45;7.28;;;4.85;;
30888;SDS011;51092;50.874;7.024;2023-07-29T04:29:46;6.13;;;5.50;;
30888;SDS011;51092;50.874;7.024;2023-07-29T04:30:49;5.97;;;5.38;;
30888;SDS011;51092;50.874;7.024;2023-07-29T04:31:50;6.10;;;5.50;;
30888;SDS011;51092;50.874;7.024;2023-07-29T04:32:52;8.82;;;8.10;;
30888;SDS011;51092;50.874;7.024;2023-07-29T04:33:53;6.22;;;5.68;;
30888;SDS011;51092;50.874;7.024;2023-07-29T04:34:56;7.55;;;6.85;;
30888;SDS011;51092;50.874;7.024;2023-07-29T04:35:57;6.03;;;5.53;;
30888;SDS011;51092;50.874;7.024;2023-07-29T04:37:00;6.50;;;5.93;;
30888;SDS011;51092;50.874;7.024;2023-07-29T04:38:01;7.43;;;6.82;;
30888;SDS011;51092;50.874;7.024;2023-07-29T04:39:04;6.75;;;6.25;;
30888;SDS011;51092;50.874;7.024;2023-07-29T04:40:06;9.63;;;8.70;;
30888;SDS011;51092;50.874;7.024;2023-07-29T04:41:09;7.20;;;6.60;;
30888;SDS011;51092;50.874;7.024;2023-07-29T04:42:11;9.05;;;8.35;;
30888;SDS011;51092;50.874;7.024;2023-07-29T04:43:14;13.63;;;12.20;;
30888;SDS011;51092;50.874;7.024;2023-07-29T04:44:15;9.02;;;8.10;;
30888;SDS011;51092;50.874;7.024;2023-07-29T04:45:18;6.93;;;6.43;;
30888;SDS011;51092;50.874;7.024;2023-07-29T04:46:21;6.88;;;6.28;;
30888;SDS011;51092;50.874;7.024;2023-07-29T04:47:23;8.05;;;7.38;;
30888;SDS011;51092;50.874;7.024;2023-07-29T04:48:25;7.63;;;6.90;;
30888;SDS011;51092;50.874;7.024;2023-07-29T04:49:28;7.63;;;7.00;;
30888;SDS011;51092;50.874;7.024;2023-07-29T04:50:29;12.63;;;11.50;;
30888;SDS011;51092;50.874;7.024;2023-07-29T04:51:32;24.00;;;18.80;;
30888;SDS011;51092;50.874;7.024;2023-07-29T04:52:33;31.65;;;25.55;;
30888;SDS011;51092;50.874;7.024;2023-07-29T04:53:36;8.85;;;7.93;;
30888;SDS011;51092;50.874;7.024;2023-07-29T04:54:38;9.82;;;8.93;;
30888;SDS011;51092;50.874;7.024;2023-07-29T04:55:41;8.70;;;7.50;;
30888;SDS011;51092;50.874;7.024;2023-07-29T04:56:43;7.35;;;6.65;;
30888;SDS011;51092;50.874;7.024;2023-07-29T04:57:46;6.90;;;6.20;;
30888;SDS011;51092;50.874;7.024;2023-07-29T04:58:48;10.55;;;8.88;;
30888;SDS011;51092;50.874;7.024;2023-07-29T04:59:49;5.13;;;4.63;;
30888;SDS011;51092;50.874;7.024;2023-07-29T05:00:52;5.50;;;4.43;;
30888;SDS011;51092;50.874;7.024;2023-07-29T05:01:54;5.07;;;3.55;;
30888;SDS011;51092;50.874;7.024;2023-07-29T05:02:57;7.05;;;4.28;;
30888;SDS011;51092;50.874;7.024;2023-07-29T05:03:58;4.38;;;3.97;;
30888;SDS011;51092;50.874;7.024;2023-07-29T05:05:01;4.35;;;3.85;;
30888;SDS011;51092;50.874;7.024;2023-07-29T05:06:03;5.47;;;3.70;;
30888;SDS011;51092;50.874;7.024;2023-07-29T05:07:05;4.75;;;4.03;;
30888;SDS011;51092;50.874;7.024;2023-07-29T05:08:07;5.07;;;3.95;;
30888;SDS011;51092;50.874;7.024;2023-07-29T05:09:13;8.57;;;7.70;;
30888;SDS011;51092;50.874;7.024;2023-07-29T05:10:15;4.35;;;3.97;;
30888;SDS011;51092;50.874;7.024;2023-07-29T05:11:17;6.35;;;4.22;;
30888;SDS011;51092;50.874;7.024;2023-07-29T05:12:19;4.80;;;3.85;;
30888;SDS011;51092;50.874;7.024;2023-07-29T05:13:21;4.47;;;4.07;;
30888;SDS011;51092;50.874;7.024;2023-07-29T05:14:23;7.68;;;6.80;;
30888;SDS011;51092;50.874;7.024;2023-07-29T05:15:25;7.95;;;4.63;;
30888;SDS011;51092;50.874;7.024;2023-07-29T05:16:27;4.80;;;4.35;;
30888;SDS011;51092;50.874;7.024;2023-07-29T05:17:30;5.20;;;4.70;;
30888;SDS011;51092;50.874;7.024;2023-07-29T05:18:32;5.07;;;4.57;;
30888;SDS011;51092;50.874;7.024;2023-07-29T05:19:34;6.47;;;5.72;;
30888;SDS011;51092;50.874;7.024;2023-07-29T05:20:36;4.85;;;4.38;;
30888;SDS011;51092;50.874;7.024;2023-07-29T05:21:38;6.65;;;6.03;;
30888;SDS011;51092;50.874;7.024;2023-07-29T05:22:40;7.95;;;6.55;;
30888;SDS011;51092;50.874;7.024;2023-07-29T05:23:42;11.13;;;5.80;;
30888;SDS011;51092;50.874;7.024;2023-07-29T05:24:44;5.72;;;4.60;;
30888;SDS011;51092;50.874;7.024;2023-07-29T05:25:46;8.25;;;5.97;;
30888;SDS011;51092;50.874;7.024;2023-07-29T05:26:48;4.10;;;3.65;;
30888;SDS011;51092;50.874;7.024;2023-07-29T05:27:50;5.40;;;4.25;;
30888;SDS011;51092;50.874;7.024;2023-07-29T05:28:52;5.63;;;3.60;;
30888;SDS011;51092;50.874;7.024;2023-07-29T05:29:54;4.07;;;3.67;;
30888;SDS011;51092;50.874;7.024;2023-07-29T05:30:57;5.50;;;4.13;;
30888;SDS011;51092;50.874;7.024;2023-07-29T05:32:01;6.15;;;3.95;;
30888;SDS011;51092;50.874;7.024;2023-07-29T05:33:05;3.53;;;3.22;;
30888;SDS011;51092;50.874;7.024;2023-07-29T05:34:08;4.78;;;4.00;;
30888;SDS011;51092;50.874;7.024;2023-07-29T05:35:11;4.07;;;3.78;;
30888;SDS011;51092;50.874;7.024;2023-07-29T05:36:15;4.25;;;3.67;;
30888;SDS011;51092;50.874;7.024;2023-07-29T05:37:18;4.13;;;3.53;;
30888;SDS011;51092;50.874;7.024;2023-07-29T05:38:19;4.80;;;4.40;;
30888;SDS011;51092;50.874;7.024;2023-07-29T05:39:21;5.45;;;3.53;;
30888;SDS011;51092;50.874;7.024;2023-07-29T05:40:22;3.50;;;3.17;;
30888;SDS011;51092;50.874;7.024;2023-07-29T05:41:24;3.55;;;3.17;;
30888;SDS011;51092;50.874;7.024;2023-07-29T05:42:27;5.57;;;3.70;;
30888;SDS011;51092;50.874;7.024;2023-07-29T05:43:30;5.53;;;2.88;;
30888;SDS011;51092;50.874;7.024;2023-07-29T05:44:32;5.55;;;3.88;;
30888;SDS011;51092;50.874;7.024;2023-07-29T05:45:34;3.83;;;3.00;;
30888;SDS011;51092;50.874;7.024;2023-07-29T05:46:36;3.35;;;2.88;;
30888;SDS011;51092;50.874;7.024;2023-07-29T05:47:38;3.05;;;2.75;;
30888;SDS011;51092;50.874;7.024;2023-07-29T05:48:41;3.20;;;2.90;;
30888;SDS011;51092;50.874;7.024;2023-07-29T05:49:43;4.32;;;3.92;;
30888;SDS011;51092;50.874;7.024;2023-07-29T05:50:45;3.05;;;2.75;;
30888;SDS011;51092;50.874;7.024;2023-07-29T05:51:47;5.32;;;3.38;;
30888;SDS011;51092;50.874;7.024;2023-07-29T05:52:49;8.82;;;4.72;;
30888;SDS011;51092;50.874;7.024;2023-07-29T05:53:51;5.95;;;4.10;;
30888;SDS011;51092;50.874;7.024;2023-07-29T05:54:53;5.78;;;4.45;;
30888;SDS011;51092;50.874;7.024;2023-07-29T05:55:55;7.20;;;3.72;;
30888;SDS011;51092;50.874;7.024;2023-07-29T05:56:57;7.00;;;5.95;;
30888;SDS011;51092;50.874;7.024;2023-07-29T05:57:59;7.15;;;4.88;;
30888;SDS011;51092;50.874;7.024;2023-07-29T05:59:01;5.93;;;3.70;;
30888;SDS011;51092;50.874;7.024;2023-07-29T06:00:03;7.18;;;6.47;;
30888;SDS011;51092;50.874;7.024;2023-07-29T06:01:07;8.60;;;6.28;;
30888;SDS011;51092;50.874;7.024;2023-07-29T06:02:09;6.25;;;5.13;;
30888;SDS011;51092;50.874;7.024;2023-07-29T06:03:11;6.13;;;5.45;;
30888;SDS011;51092;50.874;7.024;2023-07-29T06:04:14;6.85;;;6.15;;
30888;SDS011;51092;50.874;7.024;2023-07-29T06:05:17;6.00;;;5.30;;
30888;SDS011;51092;50.874;7.024;2023-07-29T06:06:18;7.68;;;6.97;;
30888;SDS011;51092;50.874;7.024;2023-07-29T06:07:21;9.75;;;7.28;;
30888;SDS011;51092;50.874;7.024;2023-07-29T06:08:22;13.02;;;8.13;;
30888;SDS011;51092;50.874;7.024;2023-07-29T06:09:25;10.98;;;8.25;;
30888;SDS011;51092;50.874;7.024;2023-07-29T06:10:26;8.57;;;6.75;;
30888;SDS011;51092;50.874;7.024;2023-07-29T06:11:28;11.23;;;7.50;;
30888;SDS011;51092;50.874;7.024;2023-07-29T06:12:30;11.52;;;8.65;;
30888;SDS011;51092;50.874;7.024;2023-07-29T06:13:32;11.85;;;9.30;;
30888;SDS011;51092;50.874;7.024;2023-07-29T06:14:34;11.65;;;9.43;;
30888;SDS011;51092;50.874;7.024;2023-07-29T06:15:36;9.32;;;8.07;;
30888;SDS011;51092;50.874;7.024;2023-07-29T06:16:38;10.35;;;8.73;;